sensor_id;sensor_type;location;lat;lon;timestamp;P1;durP1;ratioP1;P2;durP2;ratioP2
36855;SDS011;22788;51.434;6.786;2023-12-20T00:00:58;12.07;;;7.70;;
36855;SDS011;22788;51.434;6.786;2023-12-20T00:03:23;12.43;;;8.13;;
36855;SDS011;22788;51.434;6.786;2023-12-20T00:05:49;14.10;;;7.27;;
36855;SDS011;22788;51.434;6.786;2023-12-20T00:08:15;13.57;;;8.00;;
36855;SDS011;22788;51.434;6.786;2023-12-20T00:10:42;13.17;;;7.50;;
36855;SDS011;22788;51.434;6.786;2023-12-20T00:13:08;10.27;;;6.97;;
36855;SDS011;22788;51.434;6.786;2023-12-20T00:15:34;10.47;;;7.20;;
36855;SDS011;22788;51.434;6.786;2023-12-20T00:17:59;10.80;;;6.97;;
36855;SDS011;22788;51.434;6.786;2023-12-20T00:20:25;12.07;;;7.20;;
36855;SDS011;22788;51.434;6.786;2023-12-20T00:22:51;11.93;;;7.93;;
36855;SDS011;22788;51.434;6.786;2023-12-20T00:25:17;11.20;;;6.77;;
36855;SDS011;22788;51.434;6.786;2023-12-20T00:27:44;12.47;;;7.37;;
36855;SDS011;22788;51.434;6.786;2023-12-20T00:30:10;13.40;;;7.60;;
36855;SDS011;22788;51.434;6.786;2023-12-20T00:32:36;15.90;;;7.17;;
36855;SDS011;22788;51.434;6.786;2023-12-20T00:35:01;12.07;;;7.30;;
36855;SDS011;22788;51.434;6.786;2023-12-20T00:37:27;10.53;;;7.20;;
36855;SDS011;22788;51.434;6.786;2023-12-20T00:39:53;13.73;;;6.90;;
36855;SDS011;22788;51.434;6.786;2023-12-20T00:42:18;11.67;;;6.67;;
36855;SDS011;22788;51.434;6.786;2023-12-20T00:44:45;10.63;;;6.57;;
36855;SDS011;22788;51.434;6.786;2023-12-20T00:47:11;10.90;;;6.53;;
36855;SDS011;22788;51.434;6.786;2023-12-20T00:49:36;8.70;;;6.23;;
36855;SDS011;22788;51.434;6.786;2023-12-20T00:52:02;10.60;;;6.53;;
36855;SDS011;22788;51.434;6.786;2023-12-20T00:54:27;10.30;;;5.77;;
36855;SDS011;22788;51.434;6.786;2023-12-20T00:56:53;10.13;;;6.47;;
36855;SDS011;22788;51.434;6.786;2023-12-20T00:59:19;10.67;;;6.90;;
36855;SDS011;22788;51.434;6.786;2023-12-20T01:01:45;10.03;;;6.20;;
36855;SDS011;22788;51.434;6.786;2023-12-20T01:04:11;10.73;;;6.40;;
36855;SDS011;22788;51.434;6.786;2023-12-20T01:06:37;12.00;;;6.50;;
36855;SDS011;22788;51.434;6.786;2023-12-20T01:09:02;11.97;;;6.20;;
36855;SDS011;22788;51.434;6.786;2023-12-20T01:11:28;9.73;;;5.70;;
36855;SDS011;22788;51.434;6.786;2023-12-20T01:13:53;8.23;;;5.90;;
36855;SDS011;22788;51.434;6.786;2023-12-20T01:16:19;12.00;;;6.90;;
36855;SDS011;22788;51.434;6.786;2023-12-20T01:18:46;9.23;;;5.80;;
36855;SDS011;22788;51.434;6.786;2023-12-20T01:21:12;10.97;;;5.73;;
36855;SDS011;22788;51.434;6.786;2023-12-20T01:23:37;12.93;;;6.67;;
36855;SDS011;22788;51.434;6.786;2023-12-20T01:26:03;10.63;;;6.50;;
36855;SDS011;22788;51.434;6.786;2023-12-20T01:28:29;12.13;;;7.37;;
36855;SDS011;22788;51.434;6.786;2023-12-20T01:30:54;12.13;;;7.43;;
36855;SDS011;22788;51.434;6.786;2023-12-20T01:33:20;13.20;;;6.97;;
36855;SDS011;22788;51.434;6.786;2023-12-20T01:35:47;11.13;;;6.70;;
36855;SDS011;22788;51.434;6.786;2023-12-20T01:38:12;11.40;;;6.37;;
36855;SDS011;22788;51.434;6.786;2023-12-20T01:40:38;10.40;;;6.43;;
36855;SDS011;22788;51.434;6.786;2023-12-20T01:43:06;9.83;;;6.17;;
36855;SDS011;22788;51.434;6.786;2023-12-20T01:45:32;12.43;;;6.43;;
36855;SDS011;22788;51.434;6.786;2023-12-20T01:47:58;12.03;;;6.60;;
36855;SDS011;22788;51.434;6.786;2023-12-20T01:50:24;10.53;;;5.83;;
36855;SDS011;22788;51.434;6.786;2023-12-20T01:52:52;12.47;;;6.73;;
36855;SDS011;22788;51.434;6.786;2023-12-20T01:55:19;8.00;;;5.63;;
36855;SDS011;22788;51.434;6.786;2023-12-20T01:57:45;9.87;;;6.30;;
36855;SDS011;22788;51.434;6.786;2023-12-20T02:00:11;8.77;;;5.57;;
36855;SDS011;22788;51.434;6.786;2023-12-20T02:02:38;11.73;;;6.77;;
36855;SDS011;22788;51.434;6.786;2023-12-20T02:05:05;8.33;;;5.63;;
36855;SDS011;22788;51.434;6.786;2023-12-20T02:07:31;12.53;;;5.90;;
36855;SDS011;22788;51.434;6.786;2023-12-20T02:09:58;9.47;;;5.23;;
36855;SDS011;22788;51.434;6.786;2023-12-20T02:12:24;9.80;;;5.13;;
36855;SDS011;22788;51.434;6.786;2023-12-20T02:14:49;14.70;;;5.80;;
36855;SDS011;22788;51.434;6.786;2023-12-20T02:17:15;11.33;;;6.00;;
36855;SDS011;22788;51.434;6.786;2023-12-20T02:19:40;11.83;;;5.93;;
36855;SDS011;22788;51.434;6.786;2023-12-20T02:22:08;9.03;;;5.90;;
36855;SDS011;22788;51.434;6.786;2023-12-20T02:24:34;10.27;;;5.50;;
36855;SDS011;22788;51.434;6.786;2023-12-20T02:27:00;11.47;;;6.37;;
36855;SDS011;22788;51.434;6.786;2023-12-20T02:29:25;13.20;;;6.17;;
36855;SDS011;22788;51.434;6.786;2023-12-20T02:31:51;9.43;;;5.33;;
36855;SDS011;22788;51.434;6.786;2023-12-20T02:34:17;10.47;;;5.57;;
36855;SDS011;22788;51.434;6.786;2023-12-20T02:36:42;13.87;;;5.40;;
36855;SDS011;22788;51.434;6.786;2023-12-20T02:39:09;9.77;;;5.53;;
36855;SDS011;22788;51.434;6.786;2023-12-20T02:41:35;9.23;;;5.40;;
36855;SDS011;22788;51.434;6.786;2023-12-20T02:44:01;10.50;;;5.00;;
36855;SDS011;22788;51.434;6.786;2023-12-20T02:46:26;11.03;;;5.17;;
36855;SDS011;22788;51.434;6.786;2023-12-20T02:48:52;9.63;;;5.37;;
36855;SDS011;22788;51.434;6.786;2023-12-20T02:51:18;9.87;;;5.27;;
36855;SDS011;22788;51.434;6.786;2023-12-20T02:53:43;9.67;;;5.10;;
36855;SDS011;22788;51.434;6.786;2023-12-20T02:56:10;9.63;;;5.63;;
36855;SDS011;22788;51.434;6.786;2023-12-20T02:58:36;7.97;;;5.23;;
36855;SDS011;22788;51.434;6.786;2023-12-20T03:01:01;8.83;;;4.83;;
36855;SDS011;22788;51.434;6.786;2023-12-20T03:03:27;9.43;;;5.20;;
36855;SDS011;22788;51.434;6.786;2023-12-20T03:05:53;14.63;;;5.13;;
36855;SDS011;22788;51.434;6.786;2023-12-20T03:08:18;5.63;;;4.43;;
36855;SDS011;22788;51.434;6.786;2023-12-20T03:10:44;10.47;;;4.97;;
36855;SDS011;22788;51.434;6.786;2023-12-20T03:13:11;8.17;;;4.33;;
36855;SDS011;22788;51.434;6.786;2023-12-20T03:15:36;10.67;;;4.30;;
36855;SDS011;22788;51.434;6.786;2023-12-20T03:18:02;10.90;;;4.27;;
36855;SDS011;22788;51.434;6.786;2023-12-20T03:20:28;6.20;;;3.60;;
36855;SDS011;22788;51.434;6.786;2023-12-20T03:22:54;7.10;;;4.13;;
36855;SDS011;22788;51.434;6.786;2023-12-20T03:25:19;9.50;;;4.23;;
36855;SDS011;22788;51.434;6.786;2023-12-20T03:27:45;7.57;;;3.77;;
36855;SDS011;22788;51.434;6.786;2023-12-20T03:30:12;11.77;;;4.20;;
36855;SDS011;22788;51.434;6.786;2023-12-20T03:32:38;7.27;;;4.07;;
36855;SDS011;22788;51.434;6.786;2023-12-20T03:35:04;7.83;;;3.47;;
36855;SDS011;22788;51.434;6.786;2023-12-20T03:37:30;9.70;;;3.83;;
36855;SDS011;22788;51.434;6.786;2023-12-20T03:39:55;7.00;;;3.77;;
36855;SDS011;22788;51.434;6.786;2023-12-20T03:42:21;8.67;;;3.50;;
36855;SDS011;22788;51.434;6.786;2023-12-20T03:44:47;7.10;;;3.07;;
36855;SDS011;22788;51.434;6.786;2023-12-20T03:47:14;11.40;;;3.67;;
36855;SDS011;22788;51.434;6.786;2023-12-20T03:49:39;7.40;;;3.17;;
36855;SDS011;22788;51.434;6.786;2023-12-20T03:52:05;8.63;;;3.27;;
36855;SDS011;22788;51.434;6.786;2023-12-20T03:54:30;7.30;;;3.30;;
36855;SDS011;22788;51.434;6.786;2023-12-20T03:56:56;10.43;;;3.07;;
36855;SDS011;22788;51.434;6.786;2023-12-20T03:59:21;8.70;;;3.30;;
36855;SDS011;22788;51.434;6.786;2023-12-20T04:01:47;8.53;;;3.67;;
36855;SDS011;22788;51.434;6.786;2023-12-20T04:04:14;6.57;;;3.33;;
36855;SDS011;22788;51.434;6.786;2023-12-20T04:06:39;8.30;;;3.00;;
36855;SDS011;22788;51.434;6.786;2023-12-20T04:09:05;8.90;;;3.30;;
36855;SDS011;22788;51.434;6.786;2023-12-20T04:11:31;12.20;;;3.30;;
36855;SDS011;22788;51.434;6.786;2023-12-20T04:13:56;9.07;;;3.43;;
36855;SDS011;22788;51.434;6.786;2023-12-20T04:16:22;9.57;;;2.77;;
36855;SDS011;22788;51.434;6.786;2023-12-20T04:18:47;8.13;;;2.90;;
36855;SDS011;22788;51.434;6.786;2023-12-20T04:21:14;9.87;;;3.17;;
36855;SDS011;22788;51.434;6.786;2023-12-20T04:23:40;8.90;;;2.40;;
36855;SDS011;22788;51.434;6.786;2023-12-20T04:26:05;7.37;;;2.73;;
36855;SDS011;22788;51.434;6.786;2023-12-20T04:28:31;10.17;;;3.10;;
36855;SDS011;22788;51.434;6.786;2023-12-20T04:30:56;4.90;;;2.60;;
36855;SDS011;22788;51.434;6.786;2023-12-20T04:33:22;6.27;;;2.90;;
36855;SDS011;22788;51.434;6.786;2023-12-20T04:35:48;9.30;;;3.27;;
36855;SDS011;22788;51.434;6.786;2023-12-20T04:38:15;8.63;;;3.27;;
36855;SDS011;22788;51.434;6.786;2023-12-20T04:40:40;7.33;;;3.03;;
36855;SDS011;22788;51.434;6.786;2023-12-20T04:43:06;6.57;;;3.30;;
36855;SDS011;22788;51.434;6.786;2023-12-20T04:45:31;8.30;;;3.23;;
36855;SDS011;22788;51.434;6.786;2023-12-20T04:47:57;8.60;;;2.80;;
36855;SDS011;22788;51.434;6.786;2023-12-20T04:50:22;9.73;;;3.00;;
36855;SDS011;22788;51.434;6.786;2023-12-20T04:52:48;5.53;;;2.83;;
36855;SDS011;22788;51.434;6.786;2023-12-20T04:55:15;10.20;;;3.37;;
36855;SDS011;22788;51.434;6.786;2023-12-20T04:57:41;10.03;;;3.77;;
36855;SDS011;22788;51.434;6.786;2023-12-20T05:00:07;6.97;;;3.30;;
36855;SDS011;22788;51.434;6.786;2023-12-20T05:02:33;5.83;;;2.83;;
36855;SDS011;22788;51.434;6.786;2023-12-20T05:04:58;9.23;;;3.20;;
36855;SDS011;22788;51.434;6.786;2023-12-20T05:07:24;7.60;;;3.30;;
36855;SDS011;22788;51.434;6.786;2023-12-20T05:09:49;8.53;;;3.17;;
36855;SDS011;22788;51.434;6.786;2023-12-20T05:12:16;5.40;;;2.90;;
36855;SDS011;22788;51.434;6.786;2023-12-20T05:14:42;6.37;;;3.23;;
36855;SDS011;22788;51.434;6.786;2023-12-20T05:17:07;8.37;;;2.80;;
36855;SDS011;22788;51.434;6.786;2023-12-20T05:19:33;5.93;;;2.90;;
36855;SDS011;22788;51.434;6.786;2023-12-20T05:21:59;5.23;;;2.70;;
36855;SDS011;22788;51.434;6.786;2023-12-20T05:24:24;10.93;;;3.60;;
36855;SDS011;22788;51.434;6.786;2023-12-20T05:26:50;13.37;;;4.40;;
36855;SDS011;22788;51.434;6.786;2023-12-20T05:29:17;8.60;;;3.30;;
36855;SDS011;22788;51.434;6.786;2023-12-20T05:31:42;7.90;;;3.03;;
36855;SDS011;22788;51.434;6.786;2023-12-20T05:34:08;7.27;;;3.47;;
36855;SDS011;22788;51.434;6.786;2023-12-20T05:36:33;9.03;;;3.50;;
36855;SDS011;22788;51.434;6.786;2023-12-20T05:38:59;7.03;;;3.53;;
36855;SDS011;22788;51.434;6.786;2023-12-20T05:41:24;6.70;;;3.00;;
36855;SDS011;22788;51.434;6.786;2023-12-20T05:43:50;7.23;;;2.90;;
36855;SDS011;22788;51.434;6.786;2023-12-20T05:46:17;6.73;;;3.00;;
36855;SDS011;22788;51.434;6.786;2023-12-20T05:48:43;9.20;;;3.50;;
36855;SDS011;22788;51.434;6.786;2023-12-20T05:51:10;5.80;;;3.27;;
36855;SDS011;22788;51.434;6.786;2023-12-20T05:53:36;13.57;;;4.53;;
36855;SDS011;22788;51.434;6.786;2023-12-20T05:56:02;5.03;;;2.80;;
36855;SDS011;22788;51.434;6.786;2023-12-20T05:58:28;9.37;;;3.40;;
36855;SDS011;22788;51.434;6.786;2023-12-20T06:00:54;6.80;;;3.27;;
36855;SDS011;22788;51.434;6.786;2023-12-20T06:03:21;7.77;;;3.47;;
36855;SDS011;22788;51.434;6.786;2023-12-20T06:05:46;8.67;;;3.63;;
36855;SDS011;22788;51.434;6.786;2023-12-20T06:08:12;9.53;;;3.80;;
36855;SDS011;22788;51.434;6.786;2023-12-20T06:10:37;6.60;;;3.27;;
36855;SDS011;22788;51.434;6.786;2023-12-20T06:13:03;8.07;;;3.73;;
36855;SDS011;22788;51.434;6.786;2023-12-20T06:15:29;6.57;;;3.47;;
36855;SDS011;22788;51.434;6.786;2023-12-20T06:17:54;9.13;;;4.13;;
36855;SDS011;22788;51.434;6.786;2023-12-20T06:20:21;9.57;;;4.27;;
36855;SDS011;22788;51.434;6.786;2023-12-20T06:22:47;9.20;;;3.63;;
36855;SDS011;22788;51.434;6.786;2023-12-20T06:25:12;7.67;;;3.63;;
36855;SDS011;22788;51.434;6.786;2023-12-20T06:27:38;6.33;;;3.67;;
36855;SDS011;22788;51.434;6.786;2023-12-20T06:30:04;10.70;;;3.53;;
36855;SDS011;22788;51.434;6.786;2023-12-20T06:32:30;8.47;;;3.37;;
36855;SDS011;22788;51.434;6.786;2023-12-20T06:34:56;8.73;;;3.30;;
36855;SDS011;22788;51.434;6.786;2023-12-20T06:37:23;9.70;;;3.63;;
36855;SDS011;22788;51.434;6.786;2023-12-20T06:39:48;7.77;;;4.00;;
36855;SDS011;22788;51.434;6.786;2023-12-20T06:42:14;11.17;;;4.50;;
36855;SDS011;22788;51.434;6.786;2023-12-20T06:44:39;9.97;;;3.27;;
36855;SDS011;22788;51.434;6.786;2023-12-20T06:47:05;8.33;;;4.27;;
36855;SDS011;22788;51.434;6.786;2023-12-20T06:49:30;7.80;;;3.77;;
36855;SDS011;22788;51.434;6.786;2023-12-20T06:51:56;8.97;;;3.33;;
36855;SDS011;22788;51.434;6.786;2023-12-20T06:54:23;11.77;;;3.77;;
36855;SDS011;22788;51.434;6.786;2023-12-20T06:56:49;7.30;;;4.03;;
36855;SDS011;22788;51.434;6.786;2023-12-20T06:59:14;10.97;;;3.77;;
36855;SDS011;22788;51.434;6.786;2023-12-20T07:01:40;8.77;;;4.27;;
36855;SDS011;22788;51.434;6.786;2023-12-20T07:04:05;12.43;;;4.87;;
36855;SDS011;22788;51.434;6.786;2023-12-20T07:06:31;12.47;;;4.30;;
36855;SDS011;22788;51.434;6.786;2023-12-20T07:08:56;13.30;;;5.17;;
36855;SDS011;22788;51.434;6.786;2023-12-20T07:11:23;11.23;;;4.00;;
36855;SDS011;22788;51.434;6.786;2023-12-20T07:13:49;8.57;;;4.10;;
36855;SDS011;22788;51.434;6.786;2023-12-20T07:16:14;18.53;;;4.87;;
36855;SDS011;22788;51.434;6.786;2023-12-20T07:18:40;12.37;;;4.23;;
36855;SDS011;22788;51.434;6.786;2023-12-20T07:21:06;13.20;;;5.03;;
36855;SDS011;22788;51.434;6.786;2023-12-20T07:23:31;13.33;;;4.60;;
36855;SDS011;22788;51.434;6.786;2023-12-20T07:25:57;14.67;;;4.40;;
36855;SDS011;22788;51.434;6.786;2023-12-20T07:28:24;12.87;;;4.37;;
36855;SDS011;22788;51.434;6.786;2023-12-20T07:30:49;11.83;;;4.13;;
36855;SDS011;22788;51.434;6.786;2023-12-20T07:33:15;8.43;;;3.80;;
36855;SDS011;22788;51.434;6.786;2023-12-20T07:35:41;9.47;;;3.87;;
36855;SDS011;22788;51.434;6.786;2023-12-20T07:38:06;12.03;;;4.17;;
36855;SDS011;22788;51.434;6.786;2023-12-20T07:40:32;14.97;;;4.87;;
36855;SDS011;22788;51.434;6.786;2023-12-20T07:42:57;14.63;;;4.27;;
36855;SDS011;22788;51.434;6.786;2023-12-20T07:45:24;13.73;;;4.50;;
36855;SDS011;22788;51.434;6.786;2023-12-20T07:47:50;10.63;;;4.43;;
36855;SDS011;22788;51.434;6.786;2023-12-20T07:50:15;10.87;;;4.20;;
36855;SDS011;22788;51.434;6.786;2023-12-20T07:52:41;18.10;;;4.90;;
36855;SDS011;22788;51.434;6.786;2023-12-20T07:55:07;8.67;;;3.83;;
36855;SDS011;22788;51.434;6.786;2023-12-20T07:57:33;12.30;;;4.60;;
36855;SDS011;22788;51.434;6.786;2023-12-20T07:59:58;14.33;;;4.17;;
36855;SDS011;22788;51.434;6.786;2023-12-20T08:02:25;9.30;;;4.20;;
36855;SDS011;22788;51.434;6.786;2023-12-20T08:04:51;8.53;;;3.90;;
36855;SDS011;22788;51.434;6.786;2023-12-20T08:07:16;12.33;;;5.17;;
36855;SDS011;22788;51.434;6.786;2023-12-20T08:09:42;10.73;;;4.70;;
36855;SDS011;22788;51.434;6.786;2023-12-20T08:12:07;14.10;;;4.90;;
36855;SDS011;22788;51.434;6.786;2023-12-20T08:14:33;13.20;;;4.33;;
36855;SDS011;22788;51.434;6.786;2023-12-20T08:16:59;18.70;;;4.60;;
36855;SDS011;22788;51.434;6.786;2023-12-20T08:19:25;15.70;;;5.20;;
36855;SDS011;22788;51.434;6.786;2023-12-20T08:21:51;13.97;;;5.27;;
36855;SDS011;22788;51.434;6.786;2023-12-20T08:24:17;13.17;;;4.70;;
36855;SDS011;22788;51.434;6.786;2023-12-20T08:26:42;12.87;;;4.90;;
36855;SDS011;22788;51.434;6.786;2023-12-20T08:29:08;15.67;;;4.97;;
36855;SDS011;22788;51.434;6.786;2023-12-20T08:31:33;13.80;;;4.83;;
36855;SDS011;22788;51.434;6.786;2023-12-20T08:33:59;11.57;;;4.53;;
36855;SDS011;22788;51.434;6.786;2023-12-20T08:36:26;11.90;;;4.70;;
36855;SDS011;22788;51.434;6.786;2023-12-20T08:38:51;13.90;;;5.53;;
36855;SDS011;22788;51.434;6.786;2023-12-20T08:41:17;12.00;;;4.73;;
36855;SDS011;22788;51.434;6.786;2023-12-20T08:43:43;10.07;;;5.17;;
36855;SDS011;22788;51.434;6.786;2023-12-20T08:46:08;9.97;;;4.60;;
36855;SDS011;22788;51.434;6.786;2023-12-20T08:48:34;9.97;;;4.30;;
36855;SDS011;22788;51.434;6.786;2023-12-20T08:51:00;12.53;;;5.00;;
36855;SDS011;22788;51.434;6.786;2023-12-20T08:53:27;18.40;;;5.13;;
36855;SDS011;22788;51.434;6.786;2023-12-20T08:55:53;16.03;;;4.13;;
36855;SDS011;22788;51.434;6.786;2023-12-20T08:58:18;8.40;;;4.13;;
36855;SDS011;22788;51.434;6.786;2023-12-20T09:00:44;12.50;;;4.07;;
36855;SDS011;22788;51.434;6.786;2023-12-20T09:03:10;10.60;;;4.10;;
36855;SDS011;22788;51.434;6.786;2023-12-20T09:05:36;13.03;;;5.70;;
36855;SDS011;22788;51.434;6.786;2023-12-20T09:08:01;16.27;;;4.60;;
36855;SDS011;22788;51.434;6.786;2023-12-20T09:10:28;10.80;;;4.37;;
36855;SDS011;22788;51.434;6.786;2023-12-20T09:12:54;13.83;;;4.63;;
36855;SDS011;22788;51.434;6.786;2023-12-20T09:15:19;9.40;;;3.60;;
36855;SDS011;22788;51.434;6.786;2023-12-20T09:17:45;14.10;;;4.13;;
36855;SDS011;22788;51.434;6.786;2023-12-20T09:20:11;10.17;;;4.33;;
36855;SDS011;22788;51.434;6.786;2023-12-20T09:22:36;14.23;;;3.87;;
36855;SDS011;22788;51.434;6.786;2023-12-20T09:25:02;8.93;;;4.53;;
36855;SDS011;22788;51.434;6.786;2023-12-20T09:27:29;15.43;;;4.73;;
36855;SDS011;22788;51.434;6.786;2023-12-20T09:29:55;7.60;;;4.10;;
36855;SDS011;22788;51.434;6.786;2023-12-20T09:32:20;11.43;;;3.60;;
36855;SDS011;22788;51.434;6.786;2023-12-20T09:34:46;14.33;;;4.43;;
36855;SDS011;22788;51.434;6.786;2023-12-20T09:37:12;14.87;;;5.03;;
36855;SDS011;22788;51.434;6.786;2023-12-20T09:39:38;17.20;;;4.80;;
36855;SDS011;22788;51.434;6.786;2023-12-20T09:42:04;10.80;;;4.07;;
36855;SDS011;22788;51.434;6.786;2023-12-20T09:44:32;6.20;;;3.70;;
36855;SDS011;22788;51.434;6.786;2023-12-20T09:46:58;11.37;;;4.83;;
36855;SDS011;22788;51.434;6.786;2023-12-20T09:49:27;11.30;;;4.00;;
36855;SDS011;22788;51.434;6.786;2023-12-20T09:51:53;13.73;;;4.00;;
36855;SDS011;22788;51.434;6.786;2023-12-20T09:54:20;10.67;;;3.53;;
36855;SDS011;22788;51.434;6.786;2023-12-20T09:56:46;10.40;;;3.93;;
36855;SDS011;22788;51.434;6.786;2023-12-20T09:59:12;12.10;;;4.40;;
36855;SDS011;22788;51.434;6.786;2023-12-20T10:01:40;7.93;;;4.03;;
36855;SDS011;22788;51.434;6.786;2023-12-20T10:04:07;8.93;;;4.20;;
36855;SDS011;22788;51.434;6.786;2023-12-20T10:06:34;12.20;;;3.47;;
36855;SDS011;22788;51.434;6.786;2023-12-20T10:08:59;16.40;;;5.27;;
36855;SDS011;22788;51.434;6.786;2023-12-20T10:11:25;15.43;;;4.00;;
36855;SDS011;22788;51.434;6.786;2023-12-20T10:13:50;14.07;;;4.33;;
36855;SDS011;22788;51.434;6.786;2023-12-20T10:16:16;8.13;;;3.70;;
36855;SDS011;22788;51.434;6.786;2023-12-20T10:18:43;6.87;;;3.97;;
36855;SDS011;22788;51.434;6.786;2023-12-20T10:21:10;10.80;;;5.03;;
36855;SDS011;22788;51.434;6.786;2023-12-20T10:23:36;10.97;;;4.10;;
36855;SDS011;22788;51.434;6.786;2023-12-20T10:26:02;9.67;;;4.50;;
36855;SDS011;22788;51.434;6.786;2023-12-20T10:28:28;12.40;;;4.27;;
36855;SDS011;22788;51.434;6.786;2023-12-20T10:30:58;13.23;;;4.57;;
36855;SDS011;22788;51.434;6.786;2023-12-20T10:33:24;15.90;;;4.20;;
36855;SDS011;22788;51.434;6.786;2023-12-20T10:35:52;12.97;;;4.00;;
36855;SDS011;22788;51.434;6.786;2023-12-20T10:38:18;9.43;;;4.83;;
36855;SDS011;22788;51.434;6.786;2023-12-20T10:40:44;12.27;;;4.10;;
36855;SDS011;22788;51.434;6.786;2023-12-20T10:43:10;16.37;;;4.47;;
36855;SDS011;22788;51.434;6.786;2023-12-20T10:45:36;14.20;;;4.57;;
36855;SDS011;22788;51.434;6.786;2023-12-20T10:48:03;14.27;;;4.33;;
36855;SDS011;22788;51.434;6.786;2023-12-20T10:50:29;16.50;;;4.67;;
36855;SDS011;22788;51.434;6.786;2023-12-20T10:52:57;14.20;;;3.90;;
36855;SDS011;22788;51.434;6.786;2023-12-20T10:55:23;9.70;;;4.40;;
36855;SDS011;22788;51.434;6.786;2023-12-20T10:57:49;8.73;;;4.03;;
36855;SDS011;22788;51.434;6.786;2023-12-20T11:00:15;8.23;;;3.43;;
36855;SDS011;22788;51.434;6.786;2023-12-20T11:02:42;15.43;;;5.07;;
36855;SDS011;22788;51.434;6.786;2023-12-20T11:05:10;8.93;;;4.10;;
36855;SDS011;22788;51.434;6.786;2023-12-20T11:07:45;15.07;;;4.50;;
36855;SDS011;22788;51.434;6.786;2023-12-20T11:10:17;17.30;;;4.57;;
36855;SDS011;22788;51.434;6.786;2023-12-20T11:12:47;20.57;;;4.57;;
36855;SDS011;22788;51.434;6.786;2023-12-20T11:15:17;13.50;;;4.33;;
36855;SDS011;22788;51.434;6.786;2023-12-20T11:17:44;12.10;;;4.57;;
36855;SDS011;22788;51.434;6.786;2023-12-20T11:20:10;14.97;;;4.33;;
36855;SDS011;22788;51.434;6.786;2023-12-20T11:22:36;10.17;;;4.13;;
36855;SDS011;22788;51.434;6.786;2023-12-20T11:25:03;12.60;;;4.20;;
36855;SDS011;22788;51.434;6.786;2023-12-20T11:27:31;6.30;;;4.07;;
36855;SDS011;22788;51.434;6.786;2023-12-20T11:29:57;14.77;;;5.13;;
36855;SDS011;22788;51.434;6.786;2023-12-20T11:32:29;10.23;;;4.83;;
36855;SDS011;22788;51.434;6.786;2023-12-20T11:34:55;9.17;;;4.70;;
36855;SDS011;22788;51.434;6.786;2023-12-20T11:37:25;11.70;;;3.70;;
36855;SDS011;22788;51.434;6.786;2023-12-20T11:39:54;10.97;;;3.93;;
36855;SDS011;22788;51.434;6.786;2023-12-20T11:42:20;10.40;;;4.37;;
36855;SDS011;22788;51.434;6.786;2023-12-20T11:44:47;12.47;;;4.03;;
36855;SDS011;22788;51.434;6.786;2023-12-20T11:47:15;10.33;;;4.60;;
36855;SDS011;22788;51.434;6.786;2023-12-20T11:49:40;11.67;;;4.47;;
36855;SDS011;22788;51.434;6.786;2023-12-20T11:52:06;12.47;;;4.57;;
36855;SDS011;22788;51.434;6.786;2023-12-20T11:54:31;8.97;;;4.10;;
36855;SDS011;22788;51.434;6.786;2023-12-20T11:56:57;7.07;;;4.23;;
36855;SDS011;22788;51.434;6.786;2023-12-20T11:59:23;16.03;;;4.63;;
36855;SDS011;22788;51.434;6.786;2023-12-20T12:01:50;11.33;;;4.67;;
36855;SDS011;22788;51.434;6.786;2023-12-20T12:04:16;12.97;;;4.20;;
36855;SDS011;22788;51.434;6.786;2023-12-20T12:06:41;11.77;;;4.13;;
36855;SDS011;22788;51.434;6.786;2023-12-20T12:09:07;12.60;;;5.37;;
36855;SDS011;22788;51.434;6.786;2023-12-20T12:11:32;10.07;;;4.27;;
36855;SDS011;22788;51.434;6.786;2023-12-20T12:13:58;16.17;;;5.07;;
36855;SDS011;22788;51.434;6.786;2023-12-20T12:16:24;14.00;;;4.83;;
36855;SDS011;22788;51.434;6.786;2023-12-20T12:18:57;9.50;;;3.73;;
36855;SDS011;22788;51.434;6.786;2023-12-20T12:21:23;10.07;;;4.50;;
36855;SDS011;22788;51.434;6.786;2023-12-20T12:23:49;13.77;;;4.63;;
36855;SDS011;22788;51.434;6.786;2023-12-20T12:26:15;11.13;;;4.60;;
36855;SDS011;22788;51.434;6.786;2023-12-20T12:28:40;10.80;;;4.77;;
36855;SDS011;22788;51.434;6.786;2023-12-20T12:31:07;13.43;;;4.43;;
36855;SDS011;22788;51.434;6.786;2023-12-20T12:33:33;9.37;;;4.27;;
36855;SDS011;22788;51.434;6.786;2023-12-20T12:36:00;12.20;;;4.37;;
36855;SDS011;22788;51.434;6.786;2023-12-20T12:38:26;8.03;;;4.07;;
36855;SDS011;22788;51.434;6.786;2023-12-20T12:40:52;14.93;;;4.40;;
36855;SDS011;22788;51.434;6.786;2023-12-20T12:43:17;7.30;;;3.83;;
36855;SDS011;22788;51.434;6.786;2023-12-20T12:45:43;8.77;;;4.43;;
36855;SDS011;22788;51.434;6.786;2023-12-20T12:48:09;8.40;;;4.10;;
36855;SDS011;22788;51.434;6.786;2023-12-20T12:50:34;10.20;;;4.20;;
36855;SDS011;22788;51.434;6.786;2023-12-20T12:53:01;13.20;;;4.33;;
36855;SDS011;22788;51.434;6.786;2023-12-20T12:55:27;9.60;;;4.33;;
36855;SDS011;22788;51.434;6.786;2023-12-20T12:57:52;10.63;;;4.47;;
36855;SDS011;22788;51.434;6.786;2023-12-20T13:00:18;11.13;;;4.20;;
36855;SDS011;22788;51.434;6.786;2023-12-20T13:02:44;13.13;;;4.07;;
36855;SDS011;22788;51.434;6.786;2023-12-20T13:05:09;10.70;;;5.37;;
36855;SDS011;22788;51.434;6.786;2023-12-20T13:07:35;9.70;;;3.87;;
36855;SDS011;22788;51.434;6.786;2023-12-20T13:10:02;8.03;;;3.97;;
36855;SDS011;22788;51.434;6.786;2023-12-20T13:12:28;10.27;;;4.83;;
36855;SDS011;22788;51.434;6.786;2023-12-20T13:14:54;7.33;;;4.67;;
36855;SDS011;22788;51.434;6.786;2023-12-20T13:17:19;9.67;;;5.10;;
36855;SDS011;22788;51.434;6.786;2023-12-20T13:19:45;12.47;;;4.97;;
36855;SDS011;22788;51.434;6.786;2023-12-20T13:22:10;8.77;;;4.80;;
36855;SDS011;22788;51.434;6.786;2023-12-20T13:24:36;11.20;;;5.03;;
36855;SDS011;22788;51.434;6.786;2023-12-20T13:27:03;7.37;;;3.87;;
36855;SDS011;22788;51.434;6.786;2023-12-20T13:29:29;10.10;;;4.47;;
36855;SDS011;22788;51.434;6.786;2023-12-20T13:31:54;8.67;;;4.17;;
36855;SDS011;22788;51.434;6.786;2023-12-20T13:34:20;9.17;;;4.80;;
36855;SDS011;22788;51.434;6.786;2023-12-20T13:36:45;10.00;;;4.47;;
36855;SDS011;22788;51.434;6.786;2023-12-20T13:39:11;7.87;;;4.20;;
36855;SDS011;22788;51.434;6.786;2023-12-20T13:41:37;7.90;;;4.57;;
36855;SDS011;22788;51.434;6.786;2023-12-20T13:44:04;6.67;;;4.20;;
36855;SDS011;22788;51.434;6.786;2023-12-20T13:46:29;8.50;;;4.00;;
36855;SDS011;22788;51.434;6.786;2023-12-20T13:48:55;10.90;;;5.43;;
36855;SDS011;22788;51.434;6.786;2023-12-20T13:51:21;13.80;;;4.53;;
36855;SDS011;22788;51.434;6.786;2023-12-20T13:53:46;10.73;;;4.97;;
36855;SDS011;22788;51.434;6.786;2023-12-20T13:56:12;7.40;;;4.70;;
36855;SDS011;22788;51.434;6.786;2023-12-20T13:58:38;13.40;;;6.17;;
36855;SDS011;22788;51.434;6.786;2023-12-20T14:01:05;10.67;;;5.13;;
36855;SDS011;22788;51.434;6.786;2023-12-20T14:03:30;11.90;;;5.27;;
36855;SDS011;22788;51.434;6.786;2023-12-20T14:05:56;8.30;;;4.60;;
36855;SDS011;22788;51.434;6.786;2023-12-20T14:08:22;6.33;;;4.30;;
36855;SDS011;22788;51.434;6.786;2023-12-20T14:10:47;8.23;;;4.47;;
36855;SDS011;22788;51.434;6.786;2023-12-20T14:13:13;10.33;;;4.33;;
36855;SDS011;22788;51.434;6.786;2023-12-20T14:15:39;10.23;;;5.20;;
36855;SDS011;22788;51.434;6.786;2023-12-20T14:18:06;11.63;;;5.40;;
36855;SDS011;22788;51.434;6.786;2023-12-20T14:20:32;11.23;;;5.40;;
36855;SDS011;22788;51.434;6.786;2023-12-20T14:22:57;9.83;;;4.13;;
36855;SDS011;22788;51.434;6.786;2023-12-20T14:25:23;8.20;;;5.10;;
36855;SDS011;22788;51.434;6.786;2023-12-20T14:27:48;13.80;;;5.17;;
36855;SDS011;22788;51.434;6.786;2023-12-20T14:30:14;12.87;;;6.13;;
36855;SDS011;22788;51.434;6.786;2023-12-20T14:32:40;9.37;;;4.57;;